Due to severe server failure at the provider, not all demo sites are operational. Will take some days to rebuilt everything.

Demonstration site - Click on the  for more information

This is an optional block. Switch it on/off in your settings-file: $SITE['bannerTop'] = false; or $SITE['bannerBottom'] = false;

You can display ads, any other important text or photo’s using text / html or PHP code.

You can place one or more at the top and or bottom and it can all be different for content / size .



Visit our other weather sites:

Template documentation
and downloads

And another site



Nearby METAR Reports

   
EBAW - Antwerp
Updated: 18-10-2019 16:20
Light Showers, Rain, Partly Cloudy  
Light Showers, Rain, Partly Cloudy  
   Wind: West 25.9 km/h
Wind: West 25.9 km/h
Temperature: 11°C
Dew Point: 8°C
Humidity: 82%
Barometer: 1006 hPa
Clouds: Partly Cloudy
Visibility: 8 km
Cloud details: Few Clouds 2400 ft,
Partly Cloudy 3800 ft
EBAW 181420Z 26014KT 8000 -SHRA FEW024TCU SCT038 11/08 Q1006 NOSIG
EBLG - Liège
Updated: 18-10-2019 16:20
Few Clouds  
Few Clouds  
   Wind: SW 27.8 km/h
Wind: SW 27.8 km/h
Temperature: 13°C
Dew Point: 6°C
Humidity: 63%
Barometer: 1008 hPa
Clouds: Few Clouds
Visibility: More than 10 km
Cloud details: Few Clouds 3500 ft
EBLG 181420Z 22015KT 9999 FEW035 13/06 Q1008 NOSIG
EBCV - Mons/Bergen
Updated: 18-10-2019 16:25
Partly Cloudy  
Partly Cloudy  
   Wind: SSW 33.3 km/h
Wind: SSW 33.3 km/h
Temperature: 14°C
Dew Point: 8°C
Humidity: 67%
Barometer: 1007 hPa
Clouds: Partly Cloudy
Visibility: More than 10 km
Cloud details: Partly Cloudy 3600 ft
EBCV 181425Z AUTO 21018KT 9999 SCT036/// 14/08 Q1007 BLU
EHBK - Maastricht
Updated: 18-10-2019 16:25
Overcast  
Overcast  
   Wind: SW 35.2 km/h
Wind: SW 35.2 km/h
Temperature: 14°C
Dew Point: 7°C
Humidity: 63%
Barometer: 1007 hPa
Clouds: Overcast
Visibility: More than 10 km
Cloud details: Partly Cloudy 3100 ft,
Mostly Cloudy 3700 ft,
Overcast 4600 ft
EHBK 181425Z AUTO 23019KT 9999 SCT031 BKN037 OVC046 14/07 Q1007 NOSIG
ELLX - Luxemburg
Updated: 18-10-2019 16:20
Few Clouds  
Few Clouds  
   Wind: SW 20.4 km/h
Wind: SW 20.4 km/h
Temperature: 13°C
Dew Point: 7°C
Humidity: 67%
Barometer: 1010 hPa
Clouds: Few Clouds
Visibility: More than 10 km
Cloud details: Few Clouds 3100 ft
ELLX 181420Z 23011KT 9999 FEW031 13/07 Q1010 NOSIG
EBOS - Oostende
Updated: 18-10-2019 16:20
Light Showers, Rain, Partly Cloudy  
Light Showers, Rain, Partly Cloudy  
   Wind: South 20.4 km/h
Wind: South 20.4 km/h
Temperature: 11°C
Dew Point: 9°C
Humidity: 88%
Barometer: 1004 hPa
Clouds: Partly Cloudy
Visibility: 8 km
Cloud details: Few Clouds 1500 ft,
Partly Cloudy 2000 ft
EBOS 181420Z 17011KT 8000 -SHRA FEW015 SCT020TCU 11/09 Q1004 TEMPO 20015G25KT 4000 SHRA

Script developed by  Saratoga-weather.org Adapted for the template by  Weerstation Leuven

You find our weather info also at:

FRWN

Equipment we use:

Provider
Robohost

Robohost

This is an optional block. Switch it on/off in your settings-file: $SITE['bannerTop'] = false; or $SITE['bannerBottom'] = false;

You can display ads, any other important text or photo’s using text / html or PHP code.

You can place one or more at the top and or bottom and it can all be different for content / size .